createdAt,value
2022-10-05T00:00:22.573Z,81.48
2022-10-05T00:02:53.043Z,81.36
2022-10-05T00:05:20.487Z,80.21
2022-10-05T00:07:47.978Z,79.86
2022-10-05T00:10:19.002Z,80.87
2022-10-05T00:12:47.896Z,79.73
2022-10-05T00:15:18.689Z,79.48
2022-10-05T00:17:46.174Z,80.70
2022-10-05T00:20:23.701Z,80.04
2022-10-05T00:23:00.871Z,79.40
2022-10-05T00:25:28.655Z,80.48
2022-10-05T00:28:01.303Z,79.77
2022-10-05T00:30:34.023Z,80.51
2022-10-05T00:33:01.718Z,80.92
2022-10-05T00:35:30.833Z,80.82
2022-10-05T00:37:58.244Z,81.19
2022-10-05T00:40:41.737Z,80.91
2022-10-05T00:43:09.077Z,80.33
2022-10-05T00:45:44.072Z,79.78
2022-10-05T00:48:50.692Z,79.73
2022-10-05T00:51:31.581Z,79.92
2022-10-05T00:54:38.917Z,81.13
2022-10-05T00:57:20.049Z,81.50
2022-10-05T01:00:13.071Z,81.01
2022-10-05T01:03:08.655Z,80.45
2022-10-05T01:05:57.697Z,80.13
2022-10-05T01:08:50.034Z,80.62
2022-10-05T01:11:23.559Z,80.29
2022-10-05T01:14:00.367Z,80.86
2022-10-05T01:16:36.002Z,79.98
2022-10-05T01:19:41.926Z,79.78
2022-10-05T01:22:09.263Z,80.27
2022-10-05T01:25:20.998Z,79.99
2022-10-05T01:28:20.062Z,79.91
2022-10-05T01:31:28.915Z,80.67
2022-10-05T01:34:18.625Z,80.14
2022-10-05T01:36:49.523Z,80.92
2022-10-05T01:39:38.071Z,81.15
2022-10-05T01:42:24.507Z,80.75
2022-10-05T01:45:10.297Z,80.74
2022-10-05T01:47:47.298Z,81.18
2022-10-05T01:50:42.055Z,81.98
2022-10-05T01:53:47.054Z,81.91
2022-10-05T01:57:03.745Z,81.84
2022-10-05T01:59:50.532Z,81.12
2022-10-05T02:02:21.199Z,80.60
2022-10-05T02:05:02.814Z,81.03
2022-10-05T02:07:49.514Z,81.09
2022-10-05T02:10:23.539Z,80.93
2022-10-05T02:12:58.852Z,80.36
2022-10-05T02:15:50.137Z,80.46
2022-10-05T02:18:25.318Z,80.75
2022-10-05T02:20:56.816Z,81.96
2022-10-05T02:23:32.602Z,81.62
2022-10-05T02:26:01.823Z,81.29
2022-10-05T02:28:33.592Z,81.80
2022-10-05T02:31:08.733Z,81.46
2022-10-05T02:33:37.231Z,81.17
2022-10-05T02:36:11.284Z,80.80
2022-10-05T02:39:09.328Z,80.76
2022-10-05T02:41:53.385Z,80.90
2022-10-05T02:44:41.338Z,81.40
2022-10-05T02:47:30.359Z,80.81
2022-10-05T02:50:03.888Z,80.21
2022-10-05T02:52:50.106Z,80.17
2022-10-05T02:55:29.339Z,80.56
2022-10-05T02:58:05.837Z,81.90
2022-10-05T03:00:48.039Z,81.28
2022-10-05T03:03:29.907Z,80.66
2022-10-05T03:06:04.094Z,80.76
2022-10-05T03:08:42.481Z,81.95
2022-10-05T03:11:55.774Z,82.15
2022-10-05T03:14:39.445Z,83.05
2022-10-05T03:17:15.979Z,82.81
2022-10-05T03:19:56.401Z,82.47
2022-10-05T03:23:04.872Z,81.24
2022-10-05T03:25:47.081Z,80.94
2022-10-05T03:28:51.599Z,80.52
2022-10-05T03:31:29.510Z,80.79
2022-10-05T03:34:01.913Z,80.87
2022-10-05T03:36:42.051Z,81.35
2022-10-05T03:39:25.512Z,80.94
2022-10-05T03:42:05.776Z,81.41
2022-10-05T03:44:49.716Z,80.73
2022-10-05T03:47:26.283Z,80.40
2022-10-05T03:50:29.830Z,80.18
2022-10-05T03:53:05.743Z,80.69
2022-10-05T03:55:49.938Z,80.41
2022-10-05T03:58:29.471Z,80.26
2022-10-05T04:01:02.565Z,80.57
2022-10-05T04:03:49.143Z,81.42
2022-10-05T04:06:30.587Z,81.30
2022-10-05T04:09:04.086Z,81.63
2022-10-05T04:11:45.977Z,81.32
2022-10-05T04:14:30.055Z,80.70
2022-10-05T04:17:06.848Z,80.49
2022-10-05T04:19:40.708Z,81.54
2022-10-05T04:22:18.591Z,81.80
2022-10-05T04:24:56.215Z,80.42
2022-10-05T04:27:47.387Z,80.29
2022-10-05T04:30:19.018Z,80.99
2022-10-05T04:32:59.149Z,80.45
2022-10-05T04:35:36.327Z,81.61
2022-10-05T04:38:23.701Z,83.10
2022-10-05T04:41:01.641Z,82.48
2022-10-05T04:43:57.982Z,81.11
2022-10-05T04:47:05.775Z,80.62
2022-10-05T04:49:44.879Z,81.14
2022-10-05T04:52:15.396Z,82.03
2022-10-05T04:55:07.569Z,80.97
2022-10-05T04:57:41.900Z,80.47
2022-10-05T05:00:35.450Z,81.12
2022-10-05T05:03:12.301Z,80.82
2022-10-05T05:06:15.765Z,80.90
2022-10-05T05:09:16.961Z,80.97
2022-10-05T05:12:12.545Z,80.75
2022-10-05T05:15:18.916Z,81.50
2022-10-05T05:18:20.299Z,82.05
2022-10-05T05:21:08.629Z,81.82
2022-10-05T05:23:59.404Z,81.01
2022-10-05T05:27:00.639Z,81.02
2022-10-05T05:29:34.443Z,80.90
2022-10-05T05:32:25.918Z,82.15
2022-10-05T05:35:24.382Z,83.44
2022-10-05T05:38:29.560Z,83.71
2022-10-05T05:41:24.968Z,82.63
2022-10-05T05:44:17.626Z,82.62
2022-10-05T05:47:03.923Z,83.67
2022-10-05T05:49:32.406Z,82.78
2022-10-05T05:52:04.928Z,82.15
2022-10-05T05:54:48.967Z,82.99
2022-10-05T05:57:26.344Z,83.05
2022-10-05T06:00:06.497Z,83.93
2022-10-05T06:02:56.170Z,83.86
2022-10-05T06:05:42.409Z,83.23
2022-10-05T06:08:23.518Z,82.22
2022-10-05T06:10:57.513Z,81.87
2022-10-05T06:13:32.989Z,82.17
2022-10-05T06:16:37.980Z,83.41
2022-10-05T06:19:13.249Z,80.79
2022-10-05T06:22:06.255Z,79.97
2022-10-05T06:24:40.137Z,78.71
2022-10-05T06:27:26.294Z,78.38
2022-10-05T06:29:57.237Z,79.01
2022-10-05T06:32:48.248Z,77.71
2022-10-05T06:35:32.524Z,76.58
2022-10-05T06:38:24.403Z,75.96
2022-10-05T06:41:16.443Z,74.96
2022-10-05T06:44:00.740Z,74.13
2022-10-05T06:46:32.400Z,73.20
2022-10-05T06:49:16.665Z,72.67
2022-10-05T06:52:09.786Z,72.22
2022-10-05T06:54:42.963Z,70.78
2022-10-05T06:57:24.552Z,70.04
2022-10-05T07:00:01.806Z,69.71
2022-10-05T07:02:54.387Z,69.25
2022-10-05T07:06:00.253Z,68.57
2022-10-05T07:09:01.446Z,67.72
2022-10-05T07:11:41.417Z,67.10
2022-10-05T07:14:33.723Z,66.15
2022-10-05T07:17:26.023Z,63.95
2022-10-05T07:19:54.847Z,64.94
2022-10-05T07:22:37.894Z,64.29
2022-10-05T07:25:14.152Z,62.81
2022-10-05T07:28:25.720Z,61.65
2022-10-05T07:31:09.634Z,60.33
2022-10-05T07:33:50.238Z,59.15
2022-10-05T07:36:55.353Z,57.68
2022-10-05T07:39:59.131Z,57.26
2022-10-05T07:42:51.533Z,56.51
2022-10-05T07:45:38.055Z,53.87
2022-10-05T07:48:29.161Z,54.21
2022-10-05T07:51:03.528Z,54.30
2022-10-05T07:53:41.085Z,54.53
2022-10-05T07:56:22.018Z,54.85
2022-10-05T07:58:59.231Z,56.25
2022-10-05T08:01:31.351Z,55.74
2022-10-05T08:04:08.222Z,55.97
2022-10-05T08:06:52.473Z,56.92
2022-10-05T08:09:57.643Z,55.77
2022-10-05T08:12:59.912Z,54.43
2022-10-05T08:15:35.371Z,54.33
2022-10-05T08:18:11.708Z,53.32
2022-10-05T08:20:45.388Z,53.19
2022-10-05T08:23:36.021Z,52.28
2022-10-05T08:26:31.133Z,51.00
2022-10-05T08:29:05.076Z,49.73
2022-10-05T08:31:35.432Z,51.72
2022-10-05T08:34:36.175Z,50.98
2022-10-05T08:37:13.537Z,49.29
2022-10-05T08:39:49.272Z,48.61
2022-10-05T08:42:38.790Z,49.36
2022-10-05T08:45:30.895Z,47.46
2022-10-05T08:48:36.159Z,47.90
2022-10-05T08:51:57.863Z,48.03
2022-10-05T08:54:28.706Z,47.50
2022-10-05T08:57:17.558Z,46.02
2022-10-05T08:59:53.913Z,46.08
2022-10-05T09:02:45.780Z,44.31
2022-10-05T09:05:42.816Z,44.98
2022-10-05T09:08:20.351Z,43.99
2022-10-05T09:11:07.058Z,43.75
2022-10-05T09:13:54.827Z,43.55
2022-10-05T09:16:28.387Z,42.92
2022-10-05T09:19:15.716Z,43.00
2022-10-05T09:22:16.065Z,42.86
2022-10-05T09:24:57.261Z,41.60
2022-10-05T09:27:35.629Z,43.13
2022-10-05T09:30:21.488Z,43.32
2022-10-05T09:33:27.044Z,43.14
2022-10-05T09:36:25.028Z,43.68
2022-10-05T09:39:16.746Z,44.31
2022-10-05T09:42:05.675Z,41.59
2022-10-05T09:45:22.815Z,41.83
2022-10-05T09:48:12.016Z,43.80
2022-10-05T09:51:03.823Z,42.17
2022-10-05T09:53:45.326Z,43.54
2022-10-05T09:56:46.579Z,41.73
2022-10-05T09:59:23.255Z,41.24
2022-10-05T10:02:09.942Z,41.22
2022-10-05T10:05:11.399Z,41.58
2022-10-05T10:08:08.957Z,40.97
2022-10-05T10:10:58.627Z,41.14
2022-10-05T10:13:49.264Z,40.74
2022-10-05T10:16:35.187Z,40.24
2022-10-05T10:19:21.152Z,40.49
2022-10-05T10:22:19.942Z,41.37
2022-10-05T10:25:06.144Z,42.87
2022-10-05T10:27:33.762Z,41.90
2022-10-05T10:30:57.086Z,40.25
2022-10-05T10:33:39.727Z,41.84
2022-10-05T10:36:44.043Z,41.52
2022-10-05T10:39:32.689Z,43.30
2022-10-05T10:42:09.304Z,44.09
2022-10-05T10:45:03.176Z,42.09
2022-10-05T10:48:00.286Z,43.41
2022-10-05T10:50:35.283Z,43.37
2022-10-05T10:53:35.201Z,43.19
2022-10-05T10:56:24.369Z,42.14
2022-10-05T10:59:08.903Z,42.87
2022-10-05T11:02:18.342Z,41.38
2022-10-05T11:04:54.853Z,40.70
2022-10-05T11:07:58.185Z,41.10
2022-10-05T11:10:31.345Z,39.81
2022-10-05T11:13:41.215Z,39.29
2022-10-05T11:16:27.490Z,40.93
2022-10-05T11:19:16.092Z,40.14
2022-10-05T11:22:25.949Z,40.25
2022-10-05T11:25:31.224Z,39.17
2022-10-05T11:28:20.117Z,41.37
2022-10-05T11:30:56.541Z,40.04
2022-10-05T11:33:52.264Z,39.90
2022-10-05T11:36:38.486Z,42.44
2022-10-05T11:39:44.137Z,42.14
2022-10-05T11:42:23.664Z,42.54
2022-10-05T11:45:14.145Z,41.21
2022-10-05T11:47:56.829Z,41.88
2022-10-05T11:50:27.708Z,41.97
2022-10-05T11:53:24.377Z,41.97
2022-10-05T11:55:57.703Z,41.24
2022-10-05T11:58:33.750Z,41.60
2022-10-05T12:01:15.764Z,41.14
2022-10-05T12:04:22.159Z,40.70
2022-10-05T12:06:49.760Z,42.01
2022-10-05T12:10:00.586Z,42.33
2022-10-05T12:12:36.582Z,41.38
2022-10-05T12:15:14.010Z,41.78
2022-10-05T12:17:41.351Z,43.24
2022-10-05T12:20:56.167Z,41.91
2022-10-05T12:23:33.683Z,40.05
2022-10-05T12:26:11.112Z,39.58
2022-10-05T12:28:47.226Z,40.90
2022-10-05T12:31:41.315Z,39.69
2022-10-05T12:34:27.423Z,39.88
2022-10-05T12:37:08.145Z,39.31
2022-10-05T12:39:53.361Z,38.06
2022-10-05T12:42:45.861Z,39.17
2022-10-05T12:45:31.491Z,40.33
2022-10-05T12:48:18.848Z,41.15
2022-10-05T12:50:51.330Z,42.08
2022-10-05T12:53:33.433Z,41.68
2022-10-05T12:56:23.920Z,42.47
2022-10-05T12:59:01.329Z,42.08
2022-10-05T13:01:42.159Z,41.09
2022-10-05T13:04:15.995Z,42.07
2022-10-05T13:07:03.869Z,41.13
2022-10-05T13:10:02.657Z,43.81
2022-10-05T13:12:47.957Z,44.58
2022-10-05T13:15:40.684Z,44.22
2022-10-05T13:18:34.333Z,44.67
2022-10-05T13:21:16.818Z,45.74
2022-10-05T13:24:04.943Z,46.33
2022-10-05T13:26:52.085Z,44.94
2022-10-05T13:29:26.869Z,46.07
2022-10-05T13:32:00.232Z,46.26
2022-10-05T13:34:50.119Z,47.48
2022-10-05T13:37:43.331Z,48.08
2022-10-05T13:40:14.656Z,46.86
2022-10-05T13:42:50.187Z,45.82
2022-10-05T13:45:23.337Z,46.38
2022-10-05T13:48:08.108Z,45.30
2022-10-05T13:50:45.394Z,45.39
2022-10-05T13:53:28.309Z,46.32
2022-10-05T13:56:07.249Z,45.85
2022-10-05T13:58:51.518Z,46.52
2022-10-05T14:01:42.709Z,45.65
2022-10-05T14:04:24.729Z,45.71
2022-10-05T14:06:52.712Z,46.72
2022-10-05T14:09:20.347Z,46.77
2022-10-05T14:11:50.575Z,46.38
2022-10-05T14:14:28.275Z,44.43
2022-10-05T14:17:04.137Z,45.65
2022-10-05T14:19:40.919Z,47.37
2022-10-05T14:22:15.790Z,46.23
2022-10-05T14:25:19.809Z,46.38
2022-10-05T14:28:24.167Z,47.17
2022-10-05T14:31:15.209Z,47.01
2022-10-05T14:33:43.327Z,46.52
2022-10-05T14:36:34.079Z,47.48
2022-10-05T14:39:05.015Z,47.25
2022-10-05T14:41:37.631Z,47.66
2022-10-05T14:44:25.188Z,47.68
2022-10-05T14:46:56.167Z,48.43
2022-10-05T14:49:26.880Z,48.50
2022-10-05T14:51:55.841Z,48.71
2022-10-05T14:54:43.898Z,49.07
2022-10-05T14:57:33.920Z,50.16
2022-10-05T15:00:16.581Z,50.21
2022-10-05T15:03:21.892Z,51.02
2022-10-05T15:05:54.027Z,50.68
2022-10-05T15:08:46.376Z,51.94
2022-10-05T15:11:19.661Z,52.42
2022-10-05T15:13:48.701Z,52.94
2022-10-05T15:16:31.086Z,53.54
2022-10-05T15:19:08.323Z,53.90
2022-10-05T15:21:42.380Z,53.51
2022-10-05T15:24:24.286Z,53.46
2022-10-05T15:26:55.126Z,54.88
2022-10-05T15:29:38.194Z,55.83
2022-10-05T15:32:41.610Z,55.09
2022-10-05T15:35:41.600Z,55.37
2022-10-05T15:38:12.079Z,54.80
2022-10-05T15:40:46.618Z,54.32
2022-10-05T15:43:17.855Z,54.29
2022-10-05T15:46:13.942Z,54.51
2022-10-05T15:48:58.911Z,54.88
2022-10-05T15:51:29.414Z,55.34
2022-10-05T15:54:43.075Z,54.77
2022-10-05T15:57:33.783Z,55.30
2022-10-05T16:00:10.451Z,55.05
2022-10-05T16:03:11.132Z,55.11
2022-10-05T16:05:57.300Z,55.45
2022-10-05T16:08:54.106Z,55.84
2022-10-05T16:11:43.596Z,55.99
2022-10-05T16:14:32.297Z,56.18
2022-10-05T16:17:05.403Z,56.42
2022-10-05T16:19:56.664Z,56.92
2022-10-05T16:22:43.936Z,57.65
2022-10-05T16:25:25.986Z,57.96
2022-10-05T16:28:22.914Z,58.28
2022-10-05T16:30:59.062Z,58.56
2022-10-05T16:33:55.196Z,58.75
2022-10-05T16:36:22.864Z,59.32
2022-10-05T16:39:11.151Z,59.74
2022-10-05T16:41:45.032Z,59.87
2022-10-05T16:44:38.656Z,60.07
2022-10-05T16:47:27.654Z,60.23
2022-10-05T16:50:20.705Z,60.32
2022-10-05T16:52:55.599Z,60.53
2022-10-05T16:55:39.744Z,60.56
2022-10-05T16:58:18.102Z,60.69
2022-10-05T17:00:52.051Z,60.78
2022-10-05T17:03:57.500Z,61.45
2022-10-05T17:06:58.020Z,61.54
2022-10-05T17:09:47.447Z,61.90
2022-10-05T17:12:42.867Z,61.76
2022-10-05T17:15:41.328Z,62.09
2022-10-05T17:18:29.357Z,63.50
2022-10-05T17:21:13.340Z,61.47
2022-10-05T17:24:05.084Z,61.12
2022-10-05T17:26:35.320Z,61.93
2022-10-05T17:29:25.222Z,61.86
2022-10-05T17:32:07.989Z,63.91
2022-10-05T17:35:02.939Z,65.04
2022-10-05T17:37:32.059Z,65.99
2022-10-05T17:39:59.592Z,66.90
2022-10-05T17:42:27.748Z,67.31
2022-10-05T17:45:02.508Z,67.30
2022-10-05T17:47:54.807Z,67.80
2022-10-05T17:51:04.821Z,67.65
2022-10-05T17:54:02.930Z,67.13
2022-10-05T17:56:36.276Z,66.20
2022-10-05T17:59:06.739Z,65.69
2022-10-05T18:01:39.463Z,65.28
2022-10-05T18:04:13.427Z,65.07
2022-10-05T18:07:00.416Z,64.82
2022-10-05T18:09:33.036Z,64.76
2022-10-05T18:12:38.511Z,64.94
2022-10-05T18:15:09.271Z,65.18
2022-10-05T18:17:36.632Z,66.12
2022-10-05T18:20:23.990Z,67.91
2022-10-05T18:22:54.252Z,69.31
2022-10-05T18:25:43.228Z,69.45
2022-10-05T18:28:27.888Z,69.70
2022-10-05T18:31:15.656Z,69.84
2022-10-05T18:34:09.618Z,69.90
2022-10-05T18:37:15.526Z,69.76
2022-10-05T18:40:05.168Z,69.60
2022-10-05T18:42:52.988Z,70.18
2022-10-05T18:45:43.697Z,69.94
2022-10-05T18:48:31.158Z,69.95
2022-10-05T18:51:10.685Z,69.44
2022-10-05T18:54:15.711Z,69.82
2022-10-05T18:56:51.415Z,70.87
2022-10-05T18:59:48.528Z,71.65
2022-10-05T19:02:26.149Z,71.16
2022-10-05T19:05:07.303Z,70.93
2022-10-05T19:07:59.418Z,70.79
2022-10-05T19:11:15.431Z,70.97
2022-10-05T19:14:19.273Z,71.59
2022-10-05T19:17:00.772Z,71.42
2022-10-05T19:19:37.217Z,71.04
2022-10-05T19:22:35.733Z,70.58
2022-10-05T19:25:21.001Z,70.74
2022-10-05T19:28:15.369Z,70.83
2022-10-05T19:31:07.471Z,71.43
2022-10-05T19:33:40.805Z,70.04
2022-10-05T19:36:11.331Z,71.59
2022-10-05T19:38:49.704Z,71.94
2022-10-05T19:41:26.275Z,71.27
2022-10-05T19:44:13.498Z,71.96
2022-10-05T19:47:02.796Z,72.35
2022-10-05T19:49:49.066Z,73.13
2022-10-05T19:52:40.149Z,72.55
2022-10-05T19:55:26.416Z,73.33
2022-10-05T19:57:57.655Z,73.12
2022-10-05T20:00:28.598Z,73.49
2022-10-05T20:03:12.110Z,73.21
2022-10-05T20:05:40.567Z,73.06
2022-10-05T20:08:17.141Z,73.27
2022-10-05T20:10:46.295Z,73.19
2022-10-05T20:13:22.201Z,72.48
2022-10-05T20:16:27.126Z,72.11
2022-10-05T20:19:13.686Z,73.40
2022-10-05T20:21:56.757Z,73.42
2022-10-05T20:24:26.904Z,73.59
2022-10-05T20:27:02.123Z,74.44
2022-10-05T20:29:32.292Z,73.85
2022-10-05T20:32:00.430Z,73.62
2022-10-05T20:34:27.994Z,72.81
2022-10-05T20:36:55.771Z,72.51
2022-10-05T20:39:23.232Z,72.43
2022-10-05T20:41:50.680Z,72.18
2022-10-05T20:44:18.368Z,72.47
2022-10-05T20:46:46.706Z,73.03
2022-10-05T20:49:14.207Z,73.05
2022-10-05T20:51:41.984Z,73.05
2022-10-05T20:54:09.414Z,72.52
2022-10-05T20:56:36.875Z,72.89
2022-10-05T20:59:04.613Z,72.61
2022-10-05T21:01:32.121Z,72.51
2022-10-05T21:03:59.906Z,72.98
2022-10-05T21:06:28.642Z,73.16
2022-10-05T21:08:56.094Z,73.08
2022-10-05T21:11:23.635Z,73.76
2022-10-05T21:13:53.675Z,72.85
2022-10-05T21:16:21.292Z,73.46
2022-10-05T21:18:48.918Z,73.57
2022-10-05T21:21:18.281Z,73.56
2022-10-05T21:23:46.893Z,73.86
2022-10-05T21:26:15.371Z,73.81
2022-10-05T21:28:43.162Z,73.60
2022-10-05T21:31:10.777Z,73.28
2022-10-05T21:33:38.253Z,73.85
2022-10-05T21:36:05.975Z,73.99
2022-10-05T21:38:33.386Z,74.31
2022-10-05T21:41:00.882Z,74.25
2022-10-05T21:43:28.774Z,74.03
2022-10-05T21:45:56.645Z,74.17
2022-10-05T21:48:26.017Z,73.99
2022-10-05T21:50:54.430Z,73.66
2022-10-05T21:53:27.835Z,73.51
2022-10-05T21:55:57.718Z,74.57
2022-10-05T21:58:28.843Z,74.81
2022-10-05T22:00:56.937Z,74.57
2022-10-05T22:03:24.774Z,74.99
2022-10-05T22:05:52.255Z,75.15
2022-10-05T22:08:25.648Z,75.50
2022-10-05T22:10:56.841Z,75.34
2022-10-05T22:13:26.116Z,74.89
2022-10-05T22:15:57.768Z,74.57
2022-10-05T22:18:26.840Z,74.43
2022-10-05T22:20:54.865Z,74.62
2022-10-05T22:23:22.289Z,74.57
2022-10-05T22:25:49.757Z,75.01
2022-10-05T22:28:17.607Z,74.61
2022-10-05T22:30:45.619Z,75.22
2022-10-05T22:33:13.338Z,74.82
2022-10-05T22:35:41.079Z,75.13
2022-10-05T22:38:08.512Z,75.11
2022-10-05T22:40:36.680Z,74.88
2022-10-05T22:43:04.688Z,74.66
2022-10-05T22:45:32.879Z,74.36
2022-10-05T22:48:00.387Z,74.11
2022-10-05T22:50:28.089Z,74.80
2022-10-05T22:52:55.648Z,74.62
2022-10-05T22:55:24.536Z,74.99
2022-10-05T22:57:52.310Z,74.88
2022-10-05T23:00:24.744Z,75.30
2022-10-05T23:02:55.505Z,75.29
2022-10-05T23:05:22.958Z,75.61
2022-10-05T23:07:50.346Z,75.48
2022-10-05T23:10:18.939Z,75.52
2022-10-05T23:12:57.182Z,75.40
2022-10-05T23:15:28.391Z,75.12
2022-10-05T23:17:59.193Z,75.20
2022-10-05T23:20:27.008Z,75.65
2022-10-05T23:22:54.697Z,75.48
2022-10-05T23:25:22.285Z,75.33
2022-10-05T23:27:49.725Z,75.89
2022-10-05T23:30:17.448Z,76.04
2022-10-05T23:32:45.136Z,75.63
2022-10-05T23:35:13.281Z,75.77
2022-10-05T23:37:43.301Z,75.86
2022-10-05T23:40:13.896Z,76.33
2022-10-05T23:42:42.116Z,76.31
2022-10-05T23:45:10.978Z,76.46
2022-10-05T23:47:39.388Z,76.42
2022-10-05T23:50:08.576Z,76.33
2022-10-05T23:52:36.664Z,76.40
2022-10-05T23:55:05.510Z,76.10
2022-10-05T23:57:33.462Z,76.35
